Palm Springs International Airport

Airport
ICAO code: 
KPSP
Summary
ICAO Region: 
NAM
Territory: 
Location: 
Palm Springs, California,
Coordinates: 
Aerial View: 
33° 49' 45.646" N, 116° 30' 26.559" W
Airport LOS: 
Parallel Runway Operation
Metar
Observation
KPSP 040553Z 34006KT 6SM HZ CLR 19/06 A3006 RMK AO2 SLP176 T01890056 10256 20172 53010
Station
Palm Springs, Palm Springs Regional Airport
Date/Time
2021-12-04 05:53:00
Wind direction
340°
Wind speed
06 kts
Lowest cloud amount
n/a
Temperature
18.9°C
Dew point
5.6°C
Humidity
41%
Weather condition
haze

Description

Palm Springs International Airport is a public airport located two miles (3 km) east of the central business district of Palm Springs, California, serving the Inland Empire Metropolitan Area of Southern California.

Climatology

Desert climate (Köppen climate classification Bwh) with extremely hot summers and warm winters

Runways

Designator Length Width Surface Rops
13L/31R 1509 23 ASP Yes/Yes
13R/31L 3048 46 ASP Yes/Yes
Airport map: 
Aerial View: 

SKYbrary Partners:

Safety knowledge contributed by: